createdAt,value
2023-03-20T00:01:21.107Z,97719.41
2023-03-20T00:03:49.710Z,97724.88
2023-03-20T00:06:19.085Z,97733.00
2023-03-20T00:08:53.240Z,97723.53
2023-03-20T00:11:31.389Z,97723.53
2023-03-20T00:14:03.651Z,97736.81
2023-03-20T00:16:35.177Z,97730.50
2023-03-20T00:19:07.472Z,97732.34
2023-03-20T00:21:35.726Z,97735.81
2023-03-20T00:24:04.004Z,97727.69
2023-03-20T00:26:35.914Z,97734.84
2023-03-20T00:29:08.469Z,97732.19
2023-03-20T00:31:39.913Z,97736.50
2023-03-20T00:34:15.230Z,97729.53
2023-03-20T00:36:43.720Z,97730.34
2023-03-20T00:39:12.090Z,97730.34
2023-03-20T00:41:45.946Z,97725.03
2023-03-20T00:46:57.759Z,97730.50
2023-03-20T00:49:29.980Z,97725.34
2023-03-20T00:51:59.204Z,97723.69
2023-03-20T00:54:27.918Z,97727.34
2023-03-20T00:57:01.928Z,97726.66
2023-03-20T00:59:33.900Z,97727.66
2023-03-20T01:02:04.198Z,97727.94
2023-03-20T01:04:38.275Z,97735.22
2023-03-20T01:07:08.491Z,97734.38
2023-03-20T01:09:36.772Z,97737.19
2023-03-20T01:12:10.734Z,97735.69
2023-03-20T01:14:42.128Z,97749.09
2023-03-20T01:17:24.017Z,97741.59
2023-03-20T01:19:52.450Z,97747.91
2023-03-20T01:22:20.883Z,97741.06
2023-03-20T01:24:49.569Z,97739.38
2023-03-20T01:27:20.564Z,97752.00
2023-03-20T01:29:49.170Z,97748.66
2023-03-20T01:32:20.909Z,97744.47
2023-03-20T01:34:49.240Z,97742.78
2023-03-20T01:37:24.771Z,97741.44
2023-03-20T01:39:53.411Z,97745.09
2023-03-20T01:42:25.013Z,97748.69
2023-03-20T01:44:53.627Z,97746.31
2023-03-20T01:47:26.299Z,97749.13
2023-03-20T01:50:32.209Z,97748.75
2023-03-20T01:53:09.646Z,97745.41
2023-03-20T01:55:42.816Z,97744.56
2023-03-20T01:58:18.878Z,97745.56
2023-03-20T02:00:48.775Z,97741.22
2023-03-20T02:03:20.325Z,97740.41
2023-03-20T02:05:49.091Z,97743.91
2023-03-20T02:08:29.000Z,97743.19
2023-03-20T02:10:58.555Z,97740.41
2023-03-20T02:13:29.072Z,97733.56
2023-03-20T02:16:05.766Z,97741.22
2023-03-20T02:18:36.533Z,97740.25
2023-03-20T02:21:52.777Z,97739.53
2023-03-20T02:25:15.838Z,97735.38
2023-03-20T02:28:08.268Z,97739.03
2023-03-20T02:31:01.898Z,97736.22
2023-03-20T02:34:07.650Z,97740.69
2023-03-20T02:37:25.854Z,97735.38
2023-03-20T02:40:11.381Z,97739.84
2023-03-20T02:42:46.726Z,97735.22
2023-03-20T02:45:21.190Z,97735.09
2023-03-20T02:47:56.298Z,97739.25
2023-03-20T02:50:35.101Z,97740.94
2023-03-20T02:53:19.114Z,97743.59
2023-03-20T02:56:03.890Z,97744.41
2023-03-20T02:58:40.004Z,97742.59
2023-03-20T03:01:15.764Z,97744.25
2023-03-20T03:03:48.857Z,97752.22
2023-03-20T03:06:24.694Z,97739.78
2023-03-20T03:08:57.559Z,97748.59
2023-03-20T03:11:27.393Z,97741.44
2023-03-20T03:13:58.550Z,97744.94
2023-03-20T03:16:31.097Z,97755.41
2023-03-20T03:19:07.824Z,97750.13
2023-03-20T03:21:38.842Z,97752.75
2023-03-20T03:24:08.703Z,97748.31
2023-03-20T03:26:42.316Z,97750.97
2023-03-20T03:29:15.961Z,97749.97
2023-03-20T03:31:46.710Z,97745.66
2023-03-20T03:34:18.917Z,97747.31
2023-03-20T03:36:54.006Z,97747.47
2023-03-20T03:39:29.928Z,97757.22
2023-03-20T03:42:08.109Z,97757.06
2023-03-20T03:44:44.376Z,97752.63
2023-03-20T03:47:17.462Z,97753.63
2023-03-20T03:49:55.876Z,97756.25
2023-03-20T03:52:26.167Z,97762.38
2023-03-20T03:55:00.518Z,97764.09
2023-03-20T03:57:37.614Z,97762.38
2023-03-20T04:00:08.681Z,97761.56
2023-03-20T04:02:37.617Z,97765.03
2023-03-20T04:05:09.022Z,97766.03
2023-03-20T04:07:37.562Z,97766.88
2023-03-20T04:10:07.534Z,97773.16
2023-03-20T04:12:40.276Z,97770.50
2023-03-20T04:15:09.592Z,97775.00
2023-03-20T04:17:37.946Z,97779.31
2023-03-20T04:20:09.016Z,97780.31
2023-03-20T04:22:37.382Z,97777.78
2023-03-20T04:25:19.520Z,97785.06
2023-03-20T04:27:49.224Z,97782.41
2023-03-20T04:30:18.971Z,97788.56
2023-03-20T04:32:47.348Z,97786.72
2023-03-20T04:35:18.088Z,97783.41
2023-03-20T04:37:46.420Z,97790.50
2023-03-20T04:40:14.994Z,97796.66
2023-03-20T04:42:43.433Z,97789.66
2023-03-20T04:45:13.375Z,97790.50
2023-03-20T04:47:41.973Z,97798.34
2023-03-20T04:50:14.085Z,97800.97
2023-03-20T04:52:42.399Z,97796.66
2023-03-20T04:55:10.963Z,97798.63
2023-03-20T04:57:39.383Z,97803.22
2023-03-20T05:00:13.510Z,97801.56
2023-03-20T05:02:41.981Z,97799.75
2023-03-20T05:05:11.105Z,97793.63
2023-03-20T05:07:39.642Z,97792.75
2023-03-20T05:10:08.874Z,97793.63
2023-03-20T05:12:37.161Z,97801.72
2023-03-20T05:15:06.202Z,97797.13
2023-03-20T05:17:35.964Z,97806.72
2023-03-20T05:20:05.262Z,97805.06
2023-03-20T05:22:33.557Z,97808.25
2023-03-20T05:25:01.944Z,97805.59
2023-03-20T05:27:30.243Z,97809.25
2023-03-20T05:30:01.389Z,97811.91
2023-03-20T05:32:29.661Z,97813.56
2023-03-20T05:34:59.297Z,97816.22
2023-03-20T05:37:27.579Z,97819.72
2023-03-20T05:39:55.946Z,97820.56
2023-03-20T05:42:24.296Z,97822.22
2023-03-20T05:44:52.781Z,97814.09
2023-03-20T05:47:21.061Z,97818.41
2023-03-20T05:49:52.175Z,97816.75
2023-03-20T05:52:21.986Z,97825.41
2023-03-20T05:54:50.316Z,97823.59
2023-03-20T05:57:18.686Z,97827.94
2023-03-20T05:59:52.552Z,97828.59
2023-03-20T06:02:20.973Z,97835.59
2023-03-20T06:04:49.374Z,97836.28
2023-03-20T06:07:17.682Z,97838.00
2023-03-20T06:09:47.338Z,97836.16
2023-03-20T06:12:16.195Z,97841.16
2023-03-20T06:14:44.614Z,97845.50
2023-03-20T06:17:12.992Z,97845.38
2023-03-20T06:19:41.295Z,97837.25
2023-03-20T06:22:09.785Z,97850.22
2023-03-20T06:24:38.240Z,97848.25
2023-03-20T06:27:07.950Z,97847.94
2023-03-20T06:29:38.768Z,97853.09
2023-03-20T06:32:09.434Z,97852.16
2023-03-20T06:34:38.226Z,97858.13
2023-03-20T06:37:06.655Z,97856.47
2023-03-20T06:39:35.061Z,97862.13
2023-03-20T06:42:03.441Z,97864.66
2023-03-20T06:44:33.319Z,97864.34
2023-03-20T06:47:01.748Z,97866.72
2023-03-20T06:49:30.009Z,97863.91
2023-03-20T06:51:59.422Z,97867.25
2023-03-20T06:54:30.631Z,97874.06
2023-03-20T06:56:58.908Z,97871.28
2023-03-20T06:59:27.645Z,97878.94
2023-03-20T07:01:57.430Z,97879.78
2023-03-20T07:04:26.431Z,97876.00
2023-03-20T07:06:54.768Z,97888.16
2023-03-20T07:09:23.863Z,97888.00
2023-03-20T07:11:52.192Z,97882.41
2023-03-20T07:14:20.467Z,97884.22
2023-03-20T07:16:48.826Z,97891.72
2023-03-20T07:19:19.419Z,97882.09
2023-03-20T07:21:47.840Z,97890.72
2023-03-20T07:24:18.304Z,97886.13
2023-03-20T07:26:47.114Z,97888.78
2023-03-20T07:29:15.512Z,97895.59
2023-03-20T07:31:43.761Z,97892.78
2023-03-20T07:34:13.323Z,97890.97
2023-03-20T07:36:43.054Z,97895.84
2023-03-20T07:39:12.449Z,97894.69
2023-03-20T07:41:40.749Z,97912.31
2023-03-20T07:44:10.526Z,97904.88
2023-03-20T07:46:40.785Z,97908.22
2023-03-20T07:49:09.273Z,97915.34
2023-03-20T07:51:38.252Z,97911.56
2023-03-20T07:54:08.104Z,97910.59
2023-03-20T07:56:36.499Z,97916.41
2023-03-20T07:59:05.183Z,97922.28
2023-03-20T08:01:33.581Z,97916.66
2023-03-20T08:04:02.405Z,97914.84
2023-03-20T08:06:30.839Z,97922.38
2023-03-20T08:08:59.381Z,97929.19
2023-03-20T08:11:29.047Z,97920.91
2023-03-20T08:13:59.828Z,97926.78
2023-03-20T08:16:28.155Z,97922.66
2023-03-20T08:19:01.187Z,97919.84
2023-03-20T08:21:30.059Z,97921.00
2023-03-20T08:23:58.813Z,97926.56
2023-03-20T08:26:28.828Z,97915.09
2023-03-20T08:29:00.508Z,97927.25
2023-03-20T08:31:28.940Z,97920.94
2023-03-20T08:33:57.775Z,97922.59
2023-03-20T08:36:28.802Z,97929.31
2023-03-20T08:38:57.077Z,97923.81
2023-03-20T08:41:25.479Z,97930.66
2023-03-20T08:43:55.197Z,97937.31
2023-03-20T08:46:23.591Z,97939.19
2023-03-20T08:48:51.982Z,97941.69
2023-03-20T08:51:20.490Z,97939.69
2023-03-20T08:53:48.817Z,97935.06
2023-03-20T08:56:17.862Z,97936.56
2023-03-20T08:58:49.246Z,97940.91
2023-03-20T09:01:19.696Z,97938.91
2023-03-20T09:03:48.049Z,97934.28
2023-03-20T09:06:16.602Z,97933.13
2023-03-20T09:08:50.730Z,97933.97
2023-03-20T09:11:19.007Z,97941.97
2023-03-20T09:13:47.307Z,97935.63
2023-03-20T09:16:15.719Z,97936.47
2023-03-20T09:18:45.428Z,97936.19
2023-03-20T09:21:13.750Z,97933.50
2023-03-20T09:23:42.036Z,97934.06
2023-03-20T09:26:10.390Z,97926.88
2023-03-20T09:28:38.693Z,97938.91
2023-03-20T09:31:07.555Z,97937.75
2023-03-20T09:33:35.921Z,97942.91
2023-03-20T09:36:06.707Z,97938.09
2023-03-20T09:38:35.133Z,97934.31
2023-03-20T09:41:05.358Z,97946.47
2023-03-20T09:43:52.534Z,97945.31
2023-03-20T09:46:38.653Z,97940.53
2023-03-20T09:49:23.354Z,97934.72
2023-03-20T09:51:57.083Z,97936.75
2023-03-20T09:54:30.253Z,97937.78
2023-03-20T09:56:59.652Z,97930.03
2023-03-20T09:59:29.032Z,97926.88
2023-03-20T10:02:01.331Z,97925.25
2023-03-20T10:04:31.249Z,97920.00
2023-03-20T10:07:04.405Z,97920.19
2023-03-20T10:09:33.685Z,97914.91
2023-03-20T10:12:39.664Z,97920.59
2023-03-20T10:15:20.597Z,97909.00
2023-03-20T10:17:59.274Z,97909.88
2023-03-20T10:20:32.987Z,97911.25
2023-03-20T10:23:09.180Z,97912.59
2023-03-20T10:25:46.152Z,97911.78
2023-03-20T10:28:18.883Z,97905.44
2023-03-20T10:31:03.133Z,97900.06
2023-03-20T10:33:50.563Z,97904.56
2023-03-20T10:36:48.189Z,97894.22
2023-03-20T10:39:38.125Z,97896.38
2023-03-20T10:42:16.894Z,97893.81
2023-03-20T10:44:51.720Z,97892.78
2023-03-20T10:47:25.896Z,97896.38
2023-03-20T10:49:59.176Z,97890.31
2023-03-20T10:52:32.528Z,97879.56
2023-03-20T10:55:08.540Z,97872.28
2023-03-20T10:57:45.458Z,97870.28
2023-03-20T11:00:20.320Z,97865.16
2023-03-20T11:02:49.043Z,97864.09
2023-03-20T11:05:26.551Z,97864.78
2023-03-20T11:08:06.499Z,97862.97
2023-03-20T11:10:38.522Z,97858.16
2023-03-20T11:13:22.249Z,97869.00
2023-03-20T11:15:53.119Z,97868.44
2023-03-20T11:18:21.919Z,97860.56
2023-03-20T11:20:54.215Z,97862.44
2023-03-20T11:23:27.610Z,97857.47
2023-03-20T11:26:01.911Z,97864.16
2023-03-20T11:28:36.000Z,97863.69
2023-03-20T11:31:07.609Z,97859.91
2023-03-20T11:33:40.389Z,97858.97
2023-03-20T11:36:27.694Z,97864.78
2023-03-20T11:39:04.038Z,97867.16
2023-03-20T11:41:34.145Z,97860.69
2023-03-20T11:44:02.516Z,97860.22
2023-03-20T11:46:30.884Z,97861.78
2023-03-20T11:49:09.325Z,97854.66
2023-03-20T11:51:39.139Z,97860.19
2023-03-20T11:54:16.328Z,97863.59
2023-03-20T11:56:56.403Z,97861.09
2023-03-20T11:59:28.076Z,97857.75
2023-03-20T12:01:57.977Z,97858.78
2023-03-20T12:04:30.644Z,97855.91
2023-03-20T12:07:04.479Z,97855.44
2023-03-20T12:09:43.929Z,97851.59
2023-03-20T12:12:23.866Z,97844.72
2023-03-20T12:14:58.837Z,97845.56
2023-03-20T12:17:36.295Z,97850.25
2023-03-20T12:20:14.625Z,97842.06
2023-03-20T12:22:52.542Z,97837.06
2023-03-20T12:25:25.883Z,97839.75
2023-03-20T12:28:06.329Z,97832.06
2023-03-20T12:30:52.676Z,97837.41
2023-03-20T12:33:31.263Z,97838.44
2023-03-20T12:36:00.871Z,97841.13
2023-03-20T12:38:31.843Z,97837.59
2023-03-20T12:41:08.294Z,97840.28
2023-03-20T12:44:05.484Z,97832.59
2023-03-20T12:46:45.659Z,97837.16
2023-03-20T12:49:28.372Z,97830.09
2023-03-20T12:52:11.693Z,97825.97
2023-03-20T12:55:06.883Z,97821.97
2023-03-20T12:57:46.572Z,97828.47
2023-03-20T13:00:25.566Z,97827.84
2023-03-20T13:03:12.997Z,97835.38
2023-03-20T13:05:48.610Z,97830.38
2023-03-20T13:08:54.115Z,97825.75
2023-03-20T13:11:30.865Z,97827.97
2023-03-20T13:14:04.692Z,97829.13
2023-03-20T13:16:47.343Z,97821.47
2023-03-20T13:19:27.092Z,97825.34
2023-03-20T13:22:01.190Z,97813.97
2023-03-20T13:24:39.758Z,97813.34
2023-03-20T13:27:28.948Z,97814.16
2023-03-20T13:30:06.466Z,97822.34
2023-03-20T13:32:50.058Z,97820.69
2023-03-20T13:35:44.222Z,97813.69
2023-03-20T13:38:19.810Z,97819.84
2023-03-20T13:40:51.762Z,97817.19
2023-03-20T13:43:29.677Z,97806.66
2023-03-20T13:46:07.268Z,97813.69
2023-03-20T13:48:40.245Z,97808.34
2023-03-20T13:51:27.227Z,97810.19
2023-03-20T13:54:19.749Z,97805.69
2023-03-20T13:56:58.888Z,97799.31
2023-03-20T13:59:47.872Z,97804.66
2023-03-20T14:02:32.651Z,97807.16
2023-03-20T14:05:11.187Z,97802.66
2023-03-20T14:07:44.930Z,97789.28
2023-03-20T14:10:38.609Z,97791.59
2023-03-20T14:13:14.938Z,97792.88
2023-03-20T14:15:53.360Z,97793.56
2023-03-20T14:18:24.605Z,97779.66
2023-03-20T14:20:58.422Z,97778.44
2023-03-20T14:23:39.779Z,97786.09
2023-03-20T14:26:12.285Z,97789.91
2023-03-20T14:28:56.646Z,97789.72
2023-03-20T14:31:30.934Z,97785.03
2023-03-20T14:34:16.244Z,97782.00
2023-03-20T14:36:56.698Z,97778.31
2023-03-20T14:39:44.910Z,97787.66
2023-03-20T14:42:40.950Z,97776.94
2023-03-20T14:45:33.491Z,97771.59
2023-03-20T14:48:10.577Z,97774.09
2023-03-20T14:50:50.992Z,97766.06
2023-03-20T14:53:23.595Z,97772.25
2023-03-20T14:56:08.903Z,97777.63
2023-03-20T14:58:51.219Z,97782.13
2023-03-20T15:01:28.354Z,97777.63
2023-03-20T15:04:01.978Z,97773.09
2023-03-20T15:06:31.652Z,97774.94
2023-03-20T15:09:06.825Z,97772.25
2023-03-20T15:11:36.119Z,97776.78
2023-03-20T15:14:08.064Z,97777.78
2023-03-20T15:16:39.801Z,97775.28
2023-03-20T15:19:19.544Z,97767.28
2023-03-20T15:21:50.102Z,97775.28
2023-03-20T15:24:25.069Z,97774.47
2023-03-20T15:26:56.381Z,97774.28
2023-03-20T15:29:25.323Z,97769.75
2023-03-20T15:32:12.937Z,97769.09
2023-03-20T15:34:44.165Z,97770.97
2023-03-20T15:37:17.871Z,97771.13
2023-03-20T15:39:50.086Z,97771.13
2023-03-20T15:42:21.496Z,97767.59
2023-03-20T15:44:52.908Z,97766.56
2023-03-20T15:47:23.522Z,97768.81
2023-03-20T15:49:55.810Z,97769.78
2023-03-20T15:52:30.802Z,97761.94
2023-03-20T15:55:06.238Z,97764.63
2023-03-20T15:57:37.440Z,97762.13
2023-03-20T16:00:08.178Z,97763.16
2023-03-20T16:02:38.490Z,97770.34
2023-03-20T16:05:13.707Z,97762.66
2023-03-20T16:07:42.408Z,97763.50
2023-03-20T16:10:29.398Z,97754.00
2023-03-20T16:12:58.580Z,97753.00
2023-03-20T16:15:31.521Z,97754.00
2023-03-20T16:18:03.655Z,97754.00
2023-03-20T16:20:38.202Z,97750.69
2023-03-20T16:23:09.972Z,97761.19
2023-03-20T16:25:39.856Z,97762.41
2023-03-20T16:28:08.389Z,97749.03
2023-03-20T16:30:37.879Z,97750.41
2023-03-20T16:33:12.391Z,97759.25
2023-03-20T16:35:44.943Z,97750.41
2023-03-20T16:38:22.367Z,97755.09
2023-03-20T16:40:56.170Z,97754.41
2023-03-20T16:43:28.973Z,97742.91
2023-03-20T16:46:04.326Z,97747.44
2023-03-20T16:48:33.910Z,97752.09
2023-03-20T16:51:15.636Z,97747.28
2023-03-20T16:53:47.957Z,97753.66
2023-03-20T16:56:24.190Z,97755.84
2023-03-20T16:58:55.973Z,97750.88
2023-03-20T17:01:29.118Z,97757.75
2023-03-20T17:03:59.846Z,97757.47
2023-03-20T17:06:48.995Z,97754.50
2023-03-20T17:09:28.833Z,97766.94
2023-03-20T17:12:07.232Z,97769.47
2023-03-20T17:14:35.733Z,97764.81
2023-03-20T17:17:04.169Z,97768.84
2023-03-20T17:19:34.110Z,97773.03
2023-03-20T17:22:05.661Z,97767.56
2023-03-20T17:24:34.185Z,97766.41
2023-03-20T17:27:03.994Z,97760.94
2023-03-20T17:29:32.405Z,97770.50
2023-03-20T17:32:00.816Z,97771.34
2023-03-20T17:34:29.542Z,97770.72
2023-03-20T17:37:03.474Z,97766.41
2023-03-20T17:39:32.134Z,97773.63
2023-03-20T17:42:00.556Z,97778.97
2023-03-20T17:44:30.399Z,97772.19
2023-03-20T17:46:59.444Z,97776.50
2023-03-20T17:49:28.372Z,97783.38
2023-03-20T17:51:57.477Z,97782.22
2023-03-20T17:54:28.908Z,97783.84
2023-03-20T17:56:57.283Z,97787.19
2023-03-20T17:59:28.742Z,97782.72
2023-03-20T18:01:58.471Z,97792.19
2023-03-20T18:04:32.617Z,97795.69
2023-03-20T18:07:02.902Z,97794.53
2023-03-20T18:09:31.442Z,97788.84
2023-03-20T18:11:59.791Z,97790.38
2023-03-20T18:14:28.135Z,97791.88
2023-03-20T18:16:57.776Z,97803.19
2023-03-20T18:19:29.311Z,97803.00
2023-03-20T18:21:58.658Z,97794.84
2023-03-20T18:24:28.048Z,97793.16
2023-03-20T18:26:56.537Z,97801.81
2023-03-20T18:29:25.171Z,97799.13
2023-03-20T18:31:53.568Z,97800.59
2023-03-20T18:34:23.345Z,97802.19
2023-03-20T18:36:51.652Z,97803.84
2023-03-20T18:39:21.115Z,97799.16
2023-03-20T18:41:49.669Z,97807.78
2023-03-20T18:44:18.484Z,97802.31
2023-03-20T18:46:46.822Z,97808.91
2023-03-20T18:49:24.040Z,97806.25
2023-03-20T18:51:53.228Z,97811.19
2023-03-20T18:54:21.497Z,97812.66
2023-03-20T18:56:51.730Z,97806.97
2023-03-20T18:59:28.303Z,97814.78
2023-03-20T19:01:56.640Z,97812.75
2023-03-20T19:04:27.134Z,97815.03
2023-03-20T19:06:55.457Z,97815.50
2023-03-20T19:09:32.205Z,97809.97
2023-03-20T19:12:00.509Z,97816.75
2023-03-20T19:14:28.793Z,97812.91
2023-03-20T19:16:57.249Z,97812.53
2023-03-20T19:19:26.938Z,97810.44
2023-03-20T19:21:55.223Z,97802.94
2023-03-20T19:24:23.598Z,97813.22
2023-03-20T19:26:57.044Z,97811.31
2023-03-20T19:29:25.374Z,97817.09
2023-03-20T19:31:53.716Z,97815.88
2023-03-20T19:35:00.806Z,97820.84
2023-03-20T19:37:13.670Z,97819.78
2023-03-20T19:39:41.924Z,97829.03
2023-03-20T19:42:38.970Z,97826.00
2023-03-20T19:44:58.644Z,97826.47
2023-03-20T19:47:26.963Z,97825.22
2023-03-20T19:49:57.974Z,97827.50
2023-03-20T19:52:34.067Z,97824.47
2023-03-20T19:55:06.759Z,97832.03
2023-03-20T19:57:35.041Z,97829.81
2023-03-20T20:00:54.777Z,97828.31
2023-03-20T20:02:55.744Z,97825.28
2023-03-20T20:05:28.533Z,97832.56
2023-03-20T20:10:49.989Z,97825.88
2023-03-20T20:13:21.109Z,97827.84
2023-03-20T20:15:51.098Z,97834.16
2023-03-20T20:18:21.287Z,97832.47
2023-03-20T20:21:59.938Z,97831.78
2023-03-20T20:23:42.555Z,97828.44
2023-03-20T20:26:10.837Z,97836.56
2023-03-20T20:28:39.139Z,97832.09
2023-03-20T20:31:07.459Z,97834.91
2023-03-20T20:33:36.840Z,97832.53
2023-03-20T20:36:57.623Z,97833.91
2023-03-20T20:39:04.654Z,97834.19
2023-03-20T20:41:33.089Z,97825.72
2023-03-20T20:44:15.548Z,97837.28
2023-03-20T20:46:44.589Z,97826.97
2023-03-20T20:49:19.473Z,97837.06
2023-03-20T20:51:48.470Z,97838.31
2023-03-20T20:54:18.435Z,97838.78
2023-03-20T20:56:46.784Z,97833.78
2023-03-20T20:59:20.574Z,97837.69
2023-03-20T21:01:49.366Z,97843.41
2023-03-20T21:04:17.845Z,97842.03
2023-03-20T21:09:36.243Z,97839.41
2023-03-20T21:12:05.696Z,97850.31
2023-03-20T21:14:34.687Z,97838.31
2023-03-20T21:17:06.557Z,97839.47
2023-03-20T21:19:37.267Z,97845.06
2023-03-20T21:22:07.686Z,97838.47
2023-03-20T21:24:38.005Z,97838.94
2023-03-20T21:27:11.041Z,97842.56
2023-03-20T21:29:40.790Z,97848.16
2023-03-20T21:32:10.023Z,97846.75
2023-03-20T21:34:39.337Z,97845.25
2023-03-20T21:38:04.030Z,97847.34
2023-03-20T21:39:59.285Z,97857.38
2023-03-20T21:42:27.672Z,97847.91
2023-03-20T21:48:31.599Z,97850.41
2023-03-20T21:54:22.725Z,97852.66
2023-03-20T21:59:44.835Z,97847.94
2023-03-20T22:02:08.353Z,97847.22
2023-03-20T22:08:09.069Z,97845.84
2023-03-20T22:19:41.556Z,97835.81
2023-03-20T22:22:16.642Z,97841.94
2023-03-20T22:25:25.480Z,97844.69
2023-03-20T22:31:03.278Z,97844.59
2023-03-20T22:39:05.217Z,97842.06
2023-03-20T22:44:49.989Z,97842.47
2023-03-20T22:46:51.682Z,97841.66
2023-03-20T22:49:20.087Z,97836.38
2023-03-20T22:52:05.089Z,97839.00
2023-03-20T22:54:37.132Z,97837.47
2023-03-20T22:57:05.596Z,97839.41
2023-03-20T22:59:33.918Z,97827.13
2023-03-20T23:02:03.585Z,97837.97
2023-03-20T23:04:32.035Z,97836.31
2023-03-20T23:07:01.761Z,97838.13
2023-03-20T23:09:30.498Z,97833.81
2023-03-20T23:11:58.786Z,97841.91
2023-03-20T23:14:36.239Z,97847.34
2023-03-20T23:17:12.726Z,97843.16
2023-03-20T23:19:47.848Z,97838.97
2023-03-20T23:22:18.696Z,97830.47
2023-03-20T23:24:50.212Z,97844.94
2023-03-20T23:27:25.320Z,97834.78
2023-03-20T23:29:53.574Z,97837.28
2023-03-20T23:32:23.247Z,97837.56
2023-03-20T23:34:53.905Z,97830.72
2023-03-20T23:37:22.209Z,97831.84
2023-03-20T23:39:50.487Z,97832.94
2023-03-20T23:42:30.087Z,97834.22
2023-03-20T23:45:19.207Z,97829.91
2023-03-20T23:47:49.657Z,97829.19
2023-03-20T23:50:36.645Z,97831.03
2023-03-20T23:53:19.467Z,97825.00
2023-03-20T23:55:50.175Z,97821.38
2023-03-20T23:58:18.658Z,97824.16
